createdAt,value
2018-02-04T00:00:58.929Z,12.57
2018-02-04T00:03:27.056Z,14.20
2018-02-04T00:05:55.983Z,13.75
2018-02-04T00:08:24.126Z,12.32
2018-02-04T00:10:53.030Z,13.68
2018-02-04T00:13:21.188Z,12.77
2018-02-04T00:15:50.090Z,11.02
2018-02-04T00:18:18.248Z,13.15
2018-02-04T00:20:47.144Z,12.02
2018-02-04T00:23:15.309Z,11.60
2018-02-04T00:25:43.441Z,14.70
2018-02-04T00:28:11.603Z,12.93
2018-02-04T00:30:39.733Z,17.05
2018-02-04T00:33:07.896Z,12.95
2018-02-04T00:35:36.025Z,11.98
2018-02-04T00:38:04.191Z,15.55
2018-02-04T00:40:32.335Z,13.82
2018-02-04T00:43:00.497Z,12.98
2018-02-04T00:45:29.406Z,12.63
2018-02-04T00:47:57.565Z,15.43
2018-02-04T00:50:26.468Z,12.75
2018-02-04T00:52:54.625Z,12.05
2018-02-04T00:55:23.532Z,14.00
2018-02-04T00:57:51.689Z,11.50
2018-02-04T01:00:19.822Z,14.13
2018-02-04T01:02:47.982Z,13.10
2018-02-04T01:05:16.121Z,12.00
2018-02-04T01:07:44.277Z,11.10
2018-02-04T01:10:12.410Z,14.48
2018-02-04T01:12:40.570Z,11.43
2018-02-04T01:15:08.709Z,13.77
2018-02-04T01:17:36.874Z,11.30
2018-02-04T01:20:05.782Z,15.77
2018-02-04T01:22:33.946Z,11.25
2018-02-04T01:25:02.849Z,11.68
2018-02-04T01:27:31.004Z,14.48
2018-02-04T01:29:59.907Z,14.70
2018-02-04T01:32:28.075Z,14.13
2018-02-04T01:34:56.964Z,13.25
2018-02-04T01:37:25.128Z,13.65
2018-02-04T01:39:53.261Z,12.37
2018-02-04T01:42:21.421Z,12.30
2018-02-04T01:44:49.563Z,14.85
2018-02-04T01:47:17.721Z,12.70
2018-02-04T01:49:45.854Z,14.25
2018-02-04T01:52:14.016Z,15.65
2018-02-04T01:54:42.162Z,14.77
2018-02-04T01:57:10.325Z,15.30
2018-02-04T01:59:39.230Z,14.65
2018-02-04T02:02:07.399Z,16.48
2018-02-04T02:04:36.300Z,13.60
2018-02-04T02:07:04.485Z,16.30
2018-02-04T02:09:32.613Z,18.33
2018-02-04T02:12:00.778Z,14.10
2018-02-04T02:14:28.909Z,15.35
2018-02-04T02:16:57.068Z,18.48
2018-02-04T02:19:25.202Z,15.77
2018-02-04T02:21:53.352Z,14.45
2018-02-04T02:24:21.489Z,14.25
2018-02-04T02:26:49.649Z,16.35
2018-02-04T02:29:18.561Z,14.80
2018-02-04T02:31:46.723Z,19.92
2018-02-04T02:34:14.865Z,15.93
2018-02-04T02:36:43.028Z,14.38
2018-02-04T02:39:11.171Z,17.15
2018-02-04T02:41:39.349Z,15.23
2018-02-04T02:44:07.485Z,12.50
2018-02-04T02:46:35.624Z,14.32
2018-02-04T02:49:03.794Z,13.65
2018-02-04T02:51:31.926Z,13.77
2018-02-04T02:54:00.086Z,17.60
2018-02-04T02:56:28.222Z,15.02
2018-02-04T02:58:56.381Z,16.25
2018-02-04T03:01:24.517Z,17.92
2018-02-04T03:03:52.681Z,14.70
2018-02-04T03:06:20.822Z,15.00
2018-02-04T03:08:48.977Z,15.02
2018-02-04T03:11:17.112Z,19.10
2018-02-04T03:13:45.270Z,13.68
2018-02-04T03:16:13.409Z,15.25
2018-02-04T03:18:41.577Z,16.98
2018-02-04T03:21:09.714Z,14.63
2018-02-04T03:23:37.873Z,15.75
2018-02-04T03:26:06.010Z,15.60
2018-02-04T03:28:34.172Z,16.77
2018-02-04T03:31:02.305Z,12.48
2018-02-04T03:33:30.469Z,16.50
2018-02-04T03:35:58.593Z,14.02
2018-02-04T03:38:26.757Z,16.73
2018-02-04T03:40:54.894Z,15.23
2018-02-04T03:43:23.058Z,16.85
2018-02-04T03:45:51.192Z,16.55
2018-02-04T03:48:19.355Z,17.77
2018-02-04T03:50:47.490Z,12.95
2018-02-04T03:53:15.649Z,18.35
2018-02-04T03:55:43.780Z,17.52
2018-02-04T03:58:11.944Z,15.82
2018-02-04T04:00:40.078Z,15.93
2018-02-04T04:03:08.246Z,17.83
2018-02-04T04:05:36.388Z,18.50
2018-02-04T04:08:04.552Z,18.80
2018-02-04T04:10:33.460Z,19.27
2018-02-04T04:13:01.621Z,16.15
2018-02-04T04:15:30.522Z,18.73
2018-02-04T04:17:58.680Z,19.42
2018-02-04T04:20:26.808Z,17.05
2018-02-04T04:22:54.963Z,17.73
2018-02-04T04:25:23.105Z,19.35
2018-02-04T04:27:51.266Z,19.77
2018-02-04T04:30:19.406Z,16.37
2018-02-04T04:32:47.570Z,17.55
2018-02-04T04:35:15.708Z,19.15
2018-02-04T04:37:43.872Z,21.83
2018-02-04T04:40:12.775Z,26.80
2018-02-04T04:42:40.933Z,17.50
2018-02-04T04:45:09.834Z,22.00
2018-02-04T04:47:38.001Z,18.30
2018-02-04T04:50:06.909Z,17.73
2018-02-04T04:52:35.069Z,18.15
2018-02-04T04:55:03.972Z,17.27
2018-02-04T04:57:32.132Z,21.15
2018-02-04T05:00:01.037Z,18.83
2018-02-04T05:02:29.201Z,20.98
2018-02-04T05:04:58.099Z,23.10
2018-02-04T05:07:26.256Z,18.58
2018-02-04T05:09:55.152Z,20.30
2018-02-04T05:12:23.313Z,20.95
2018-02-04T05:14:51.482Z,22.95
2018-02-04T05:17:20.400Z,20.92
2018-02-04T05:19:48.559Z,22.33
2018-02-04T05:22:17.461Z,22.40
2018-02-04T05:24:46.380Z,22.48
2018-02-04T05:27:15.289Z,21.00
2018-02-04T05:29:43.448Z,21.77
2018-02-04T05:32:11.580Z,19.95
2018-02-04T05:34:40.518Z,18.70
2018-02-04T05:37:08.657Z,23.52
2018-02-04T05:39:37.582Z,25.67
2018-02-04T05:42:05.733Z,21.98
2018-02-04T05:44:33.893Z,19.90
2018-02-04T05:47:02.037Z,21.05
2018-02-04T05:49:30.210Z,23.98
2018-02-04T05:51:58.346Z,20.30
2018-02-04T05:54:26.509Z,20.90
2018-02-04T05:56:54.644Z,23.15
2018-02-04T05:59:22.801Z,20.58
2018-02-04T06:01:50.940Z,23.02
2018-02-04T06:04:19.103Z,18.58
2018-02-04T06:06:47.237Z,18.55
2018-02-04T06:09:15.396Z,22.83
2018-02-04T06:11:43.539Z,22.48
2018-02-04T06:14:11.699Z,22.80
2018-02-04T06:16:39.832Z,23.27
2018-02-04T06:19:07.996Z,21.30
2018-02-04T06:21:36.132Z,20.27
2018-02-04T06:24:04.296Z,25.73
2018-02-04T06:26:32.439Z,25.60
2018-02-04T06:29:00.592Z,22.73
2018-02-04T06:31:28.730Z,24.37
2018-02-04T06:33:56.884Z,21.67
2018-02-04T06:36:25.025Z,20.75
2018-02-04T06:38:53.189Z,20.67
2018-02-04T06:41:21.320Z,26.75
2018-02-04T06:43:49.492Z,22.02
2018-02-04T06:46:17.621Z,25.50
2018-02-04T06:48:45.784Z,19.52
2018-02-04T06:51:14.687Z,24.70
2018-02-04T06:53:42.844Z,25.67
2018-02-04T06:56:10.984Z,26.37
2018-02-04T06:58:39.151Z,25.15
2018-02-04T07:01:07.285Z,20.48
2018-02-04T07:03:35.454Z,21.77
2018-02-04T07:06:04.377Z,21.08
2018-02-04T07:08:32.585Z,25.60
2018-02-04T07:11:00.737Z,24.05
2018-02-04T07:13:28.915Z,22.17
2018-02-04T07:15:57.053Z,22.80
2018-02-04T07:18:25.217Z,21.27
2018-02-04T07:20:53.356Z,19.12
2018-02-04T07:23:21.539Z,27.52
2018-02-04T07:25:49.689Z,23.55
2018-02-04T07:28:17.880Z,20.95
2018-02-04T07:30:46.019Z,21.83
2018-02-04T07:33:14.183Z,19.33
2018-02-04T07:35:42.366Z,18.00
2018-02-04T07:38:10.529Z,18.73
2018-02-04T07:40:38.666Z,20.62
2018-02-04T07:43:07.599Z,18.37
2018-02-04T07:45:35.765Z,19.50
2018-02-04T07:48:03.897Z,22.25
2018-02-04T07:50:32.070Z,19.90
2018-02-04T07:53:00.226Z,18.30
2018-02-04T07:55:28.383Z,17.80
2018-02-04T07:57:56.522Z,18.08
2018-02-04T08:00:24.684Z,21.75
2018-02-04T08:02:52.826Z,18.58
2018-02-04T08:05:20.989Z,16.50
2018-02-04T08:07:49.158Z,21.02
2018-02-04T08:10:17.321Z,16.98
2018-02-04T08:12:45.470Z,14.80
2018-02-04T08:15:13.650Z,17.40
2018-02-04T08:17:41.793Z,18.20
2018-02-04T08:20:10.723Z,17.80
2018-02-04T08:22:38.881Z,16.85
2018-02-04T08:25:07.057Z,15.25
2018-02-04T08:27:35.215Z,17.80
2018-02-04T08:30:03.510Z,18.17
2018-02-04T08:32:31.639Z,16.67
2018-02-04T08:34:59.811Z,16.42
2018-02-04T08:37:27.957Z,17.08
2018-02-04T08:39:56.116Z,18.08
2018-02-04T08:42:24.244Z,15.77
2018-02-04T08:44:52.405Z,18.52
2018-02-04T08:47:20.537Z,20.25
2018-02-04T08:49:48.702Z,16.35
2018-02-04T08:52:16.833Z,14.60
2018-02-04T08:54:44.993Z,16.37
2018-02-04T08:57:13.132Z,14.57
2018-02-04T08:59:41.294Z,15.60
2018-02-04T09:02:09.426Z,17.12
2018-02-04T09:04:37.580Z,16.83
2018-02-04T09:07:05.713Z,16.98
2018-02-04T09:09:33.872Z,17.90
2018-02-04T09:12:02.000Z,16.35
2018-02-04T09:14:30.157Z,14.15
2018-02-04T09:16:58.285Z,16.73
2018-02-04T09:19:26.445Z,16.40
2018-02-04T09:21:55.341Z,16.85
2018-02-04T09:24:23.499Z,15.95
2018-02-04T09:26:51.629Z,15.68
2018-02-04T09:29:19.785Z,17.30
2018-02-04T09:31:47.917Z,16.10
2018-02-04T09:34:16.071Z,16.83
2018-02-04T09:36:44.217Z,15.80
2018-02-04T09:39:12.426Z,19.00
2018-02-04T09:41:40.633Z,15.07
2018-02-04T09:44:08.813Z,14.00
2018-02-04T09:46:36.953Z,16.12
2018-02-04T09:49:05.180Z,19.27
2018-02-04T09:51:33.417Z,13.60
2018-02-04T09:54:01.624Z,15.48
2018-02-04T09:56:29.786Z,16.02
2018-02-04T09:58:58.046Z,22.23
2018-02-04T10:01:26.970Z,18.00
2018-02-04T10:03:55.156Z,23.75
2018-02-04T10:06:23.361Z,18.33
2018-02-04T10:08:51.582Z,20.55
2018-02-04T10:11:19.730Z,16.83
2018-02-04T10:13:48.375Z,16.30
2018-02-04T10:16:17.365Z,17.00
2018-02-04T10:18:45.508Z,15.88
2018-02-04T10:21:13.661Z,15.82
2018-02-04T10:23:41.853Z,17.40
2018-02-04T10:26:10.021Z,15.65
2018-02-04T10:28:38.160Z,13.52
2018-02-04T10:31:06.333Z,13.68
2018-02-04T10:33:34.513Z,13.52
2018-02-04T10:36:02.676Z,12.75
2018-02-04T10:38:30.812Z,14.15
2018-02-04T10:40:59.000Z,12.93
2018-02-04T10:43:27.154Z,14.48
2018-02-04T10:45:55.334Z,12.13
2018-02-04T10:48:24.241Z,12.73
2018-02-04T10:53:55.353Z,14.05
2018-02-04T10:56:23.509Z,11.38
2018-02-04T10:58:51.666Z,11.75
2018-02-04T11:01:19.820Z,11.88
2018-02-04T11:03:47.954Z,12.37
2018-02-04T11:06:16.228Z,10.98
2018-02-04T11:08:45.131Z,12.63
2018-02-04T11:11:13.280Z,10.90
2018-02-04T11:13:42.196Z,12.27
2018-02-04T11:16:10.361Z,11.65
2018-02-04T11:18:39.937Z,13.82
2018-02-04T11:21:08.895Z,11.65
2018-02-04T11:23:37.047Z,12.70
2018-02-04T11:26:05.210Z,13.13
2018-02-04T11:28:33.341Z,10.98
2018-02-04T11:31:22.169Z,15.05
2018-02-04T11:33:50.301Z,12.55
2018-02-04T11:36:18.457Z,17.25
2018-02-04T11:38:46.605Z,15.15
2018-02-04T11:41:14.762Z,15.02
2018-02-04T11:43:42.897Z,14.50
2018-02-04T11:46:11.111Z,14.38
2018-02-04T11:48:39.262Z,16.10
2018-02-04T11:51:07.440Z,16.75
2018-02-04T11:53:35.583Z,16.75
2018-02-04T11:56:04.507Z,16.48
2018-02-04T11:58:32.668Z,15.45
2018-02-04T12:01:00.838Z,18.08
2018-02-04T12:03:28.982Z,16.80
2018-02-04T12:05:57.152Z,15.88
2018-02-04T12:08:25.285Z,14.38
2018-02-04T12:10:53.456Z,17.70
2018-02-04T12:13:21.664Z,16.98
2018-02-04T12:15:49.859Z,15.20
2018-02-04T12:18:19.040Z,16.20
2018-02-04T12:20:47.224Z,19.35
2018-02-04T12:23:16.141Z,18.02
2018-02-04T12:25:44.329Z,15.07
2018-02-04T12:28:12.497Z,24.27
2018-02-04T12:30:40.679Z,16.02
2018-02-04T12:33:08.835Z,18.02
2018-02-04T12:35:37.021Z,18.42
2018-02-04T12:38:05.153Z,18.95
2018-02-04T12:40:33.313Z,19.00
2018-02-04T12:43:01.452Z,18.85
2018-02-04T12:45:29.649Z,17.00
2018-02-04T12:47:57.794Z,16.48
2018-02-04T12:50:25.976Z,19.08
2018-02-04T12:52:54.104Z,20.42
2018-02-04T12:55:22.314Z,20.40
2018-02-04T12:57:50.577Z,16.85
2018-02-04T13:00:18.753Z,16.55
2018-02-04T13:02:46.880Z,18.75
2018-02-04T13:05:15.059Z,18.25
2018-02-04T13:07:43.196Z,16.95
2018-02-04T13:10:11.359Z,14.00
2018-02-04T13:12:39.540Z,18.12
2018-02-04T13:15:07.826Z,18.55
2018-02-04T13:17:35.960Z,15.63
2018-02-04T13:20:04.115Z,15.45
2018-02-04T13:22:32.245Z,17.12
2018-02-04T13:25:00.406Z,18.65
2018-02-04T13:27:28.539Z,18.48
2018-02-04T13:29:57.452Z,16.98
2018-02-04T13:32:25.593Z,18.77
2018-02-04T13:34:53.749Z,19.50
2018-02-04T13:37:21.911Z,18.17
2018-02-04T13:39:50.046Z,16.58
2018-02-04T13:42:18.210Z,17.45
2018-02-04T13:44:46.353Z,17.75
2018-02-04T13:47:14.513Z,16.05
2018-02-04T13:49:42.667Z,25.20
2018-02-04T13:52:10.830Z,14.35
2018-02-04T13:54:38.957Z,16.35
2018-02-04T13:57:07.113Z,20.62
2018-02-04T13:59:35.258Z,19.25
2018-02-04T14:02:03.424Z,17.67
2018-02-04T14:04:31.566Z,12.88
2018-02-04T14:06:59.791Z,18.50
2018-02-04T14:09:28.037Z,14.15
2018-02-04T14:11:56.259Z,15.80
2018-02-04T14:14:24.403Z,11.18
2018-02-04T14:16:52.684Z,21.98
2018-02-04T14:19:20.822Z,17.60
2018-02-04T14:21:49.018Z,19.08
2018-02-04T14:24:17.186Z,21.83
2018-02-04T14:26:45.363Z,17.05
2018-02-04T14:29:13.489Z,12.63
2018-02-04T14:31:41.652Z,12.37
2018-02-04T14:34:09.801Z,14.93
2018-02-04T14:36:38.018Z,13.98
2018-02-04T14:39:06.141Z,15.38
2018-02-04T14:41:34.321Z,15.60
2018-02-04T14:44:02.508Z,14.50
2018-02-04T14:46:30.738Z,14.40
2018-02-04T14:48:59.514Z,16.30
2018-02-04T14:51:28.431Z,18.23
2018-02-04T14:53:56.561Z,14.27
2018-02-04T14:56:25.510Z,15.55
2018-02-04T14:58:53.646Z,16.48
2018-02-04T15:01:21.821Z,15.40
2018-02-04T15:03:49.954Z,14.30
2018-02-04T15:06:18.132Z,15.57
2018-02-04T15:08:46.276Z,12.35
2018-02-04T15:11:14.464Z,14.45
2018-02-04T15:13:42.601Z,15.88
2018-02-04T15:16:10.787Z,13.30
2018-02-04T15:18:38.928Z,13.93
2018-02-04T15:21:07.099Z,17.10
2018-02-04T15:23:35.262Z,18.17
2018-02-04T15:26:04.196Z,16.83
2018-02-04T15:28:32.357Z,14.77
2018-02-04T15:31:00.610Z,13.90
2018-02-04T15:33:28.771Z,16.45
2018-02-04T15:35:57.717Z,17.10
2018-02-04T15:38:25.969Z,18.58
2018-02-04T15:40:54.175Z,15.70
2018-02-04T15:43:22.329Z,14.60
2018-02-04T15:45:50.551Z,15.98
2018-02-04T15:48:18.682Z,15.48
2018-02-04T15:50:46.856Z,13.35
2018-02-04T15:53:15.022Z,13.10
2018-02-04T15:55:43.166Z,15.02
2018-02-04T15:58:11.659Z,13.82
2018-02-04T16:00:39.824Z,17.25
2018-02-04T16:03:08.025Z,23.95
2018-02-04T16:05:36.160Z,11.85
2018-02-04T16:08:05.116Z,13.02
2018-02-04T16:10:33.307Z,15.80
2018-02-04T16:13:01.508Z,13.35
2018-02-04T16:15:29.731Z,9.25
2018-02-04T16:17:57.910Z,12.70
2018-02-04T16:20:26.059Z,14.48
2018-02-04T16:22:54.335Z,11.05
2018-02-04T16:25:22.487Z,14.30
2018-02-04T16:27:50.646Z,11.10
2018-02-04T16:30:19.556Z,11.60
2018-02-04T16:32:47.736Z,12.63
2018-02-04T16:35:15.897Z,10.90
2018-02-04T16:37:44.061Z,11.43
2018-02-04T16:40:12.189Z,13.02
2018-02-04T16:42:41.180Z,11.27
2018-02-04T16:45:09.318Z,10.43
2018-02-04T16:47:37.477Z,11.35
2018-02-04T16:50:05.609Z,14.48
2018-02-04T16:52:33.793Z,9.40
2018-02-04T16:55:01.921Z,8.50
2018-02-04T16:57:30.108Z,26.65
2018-02-04T17:00:00.037Z,11.07
2018-02-04T17:02:28.228Z,11.35
2018-02-04T17:04:56.358Z,12.75
2018-02-04T17:07:24.553Z,11.50
2018-02-04T17:09:52.762Z,10.60
2018-02-04T17:12:21.024Z,8.55
2018-02-04T17:14:49.147Z,10.15
2018-02-04T17:17:17.346Z,9.23
2018-02-04T17:19:45.529Z,10.05
2018-02-04T17:22:13.731Z,8.02
2018-02-04T17:24:41.883Z,7.93
2018-02-04T17:27:10.114Z,9.98
2018-02-04T17:29:38.292Z,8.80
2018-02-04T17:32:06.455Z,10.35
2018-02-04T17:34:34.583Z,11.38
2018-02-04T17:37:02.764Z,9.93
2018-02-04T17:39:30.906Z,8.90
2018-02-04T17:41:59.060Z,11.50
2018-02-04T17:44:27.266Z,7.82
2018-02-04T17:46:55.991Z,12.63
2018-02-04T17:49:24.153Z,11.48
2018-02-04T17:51:52.309Z,11.10
2018-02-04T17:54:20.432Z,10.40
2018-02-04T17:56:48.585Z,8.93
2018-02-04T17:59:16.710Z,8.65
2018-02-04T18:01:44.858Z,9.43
2018-02-04T18:04:12.989Z,7.25
2018-02-04T18:06:41.174Z,12.00
2018-02-04T18:09:09.296Z,8.82
2018-02-04T18:11:37.475Z,8.45
2018-02-04T18:14:05.597Z,7.90
2018-02-04T18:16:33.756Z,12.37
2018-02-04T18:19:01.902Z,8.13
2018-02-04T18:21:30.040Z,8.13
2018-02-04T18:23:58.293Z,12.85
2018-02-04T18:26:26.425Z,6.15
2018-02-04T18:28:54.580Z,11.48
2018-02-04T18:31:22.712Z,7.15
2018-02-04T18:33:50.848Z,9.60
2018-02-04T18:36:19.068Z,5.25
2018-02-04T18:38:47.210Z,7.70
2018-02-04T18:41:15.336Z,5.55
2018-02-04T18:43:43.524Z,4.72
2018-02-04T18:46:11.668Z,5.45
2018-02-04T18:48:39.835Z,5.75
2018-02-04T18:51:07.977Z,6.00
2018-02-04T18:53:36.146Z,8.95
2018-02-04T18:56:04.333Z,6.68
2018-02-04T18:58:32.504Z,6.90
2018-02-04T19:01:00.736Z,4.70
2018-02-04T19:03:28.942Z,6.00
2018-02-04T19:05:57.078Z,6.45
2018-02-04T19:08:25.233Z,6.95
2018-02-04T19:10:53.518Z,8.70
2018-02-04T19:13:22.471Z,8.30
2018-02-04T19:15:50.704Z,6.80
2018-02-04T19:18:18.920Z,7.85
2018-02-04T19:20:47.068Z,8.10
2018-02-04T19:23:15.250Z,6.93
2018-02-04T19:25:43.406Z,5.07
2018-02-04T19:28:11.558Z,7.90
2018-02-04T19:30:39.720Z,5.00
2018-02-04T19:33:07.921Z,5.00
2018-02-04T19:35:36.049Z,6.22
2018-02-04T19:38:04.355Z,4.97
2018-02-04T19:40:32.497Z,9.38
2018-02-04T19:43:00.669Z,4.62
2018-02-04T19:45:28.833Z,5.05
2018-02-04T19:47:57.005Z,4.80
2018-02-04T19:50:25.129Z,3.55
2018-02-04T19:52:53.321Z,5.30
2018-02-04T19:55:21.455Z,4.40
2018-02-04T19:57:50.373Z,3.45
2018-02-04T20:00:18.502Z,3.53
2018-02-04T20:02:46.687Z,4.00
2018-02-04T20:05:14.849Z,3.95
2018-02-04T20:07:42.988Z,5.10
2018-02-04T20:10:11.126Z,5.87
2018-02-04T20:12:39.293Z,6.32
2018-02-04T20:15:08.201Z,7.07
2018-02-04T20:17:36.365Z,4.35
2018-02-04T20:20:05.251Z,4.03
2018-02-04T20:22:33.400Z,5.05
2018-02-04T20:25:01.564Z,3.80
2018-02-04T20:27:29.722Z,3.62
2018-02-04T20:29:57.938Z,3.00
2018-02-04T20:32:37.777Z,5.22
2018-02-04T20:35:05.926Z,6.28
2018-02-04T20:37:34.125Z,4.20
2018-02-04T20:40:02.248Z,3.58
2018-02-04T20:42:30.429Z,3.87
2018-02-04T20:44:58.610Z,4.62
2018-02-04T20:47:26.761Z,4.97
2018-02-04T20:49:54.970Z,3.83
2018-02-04T20:52:23.131Z,6.43
2018-02-04T20:54:51.399Z,3.28
2018-02-04T20:57:19.672Z,4.47
2018-02-04T20:59:47.953Z,4.50
2018-02-04T21:02:16.205Z,5.18
2018-02-04T21:04:44.456Z,7.45
2018-02-04T21:07:13.449Z,4.25
2018-02-04T21:09:42.482Z,4.45
2018-02-04T21:12:10.672Z,4.35
2018-02-04T21:14:38.985Z,8.20
2018-02-04T21:17:07.148Z,5.03
2018-02-04T21:19:35.370Z,5.20
2018-02-04T21:22:03.652Z,4.72
2018-02-04T21:24:31.907Z,5.72
2018-02-04T21:27:00.017Z,5.85
2018-02-04T21:29:28.180Z,10.77
2018-02-04T21:31:56.322Z,6.22
2018-02-04T21:34:25.284Z,4.93
2018-02-04T21:36:53.424Z,6.07
2018-02-04T21:39:21.599Z,5.62
2018-02-04T21:41:49.737Z,4.03
2018-02-04T21:44:17.901Z,8.95
2018-02-04T21:46:46.798Z,4.78
2018-02-04T21:49:14.976Z,4.07
2018-02-04T21:51:43.870Z,4.93
2018-02-04T21:54:12.048Z,5.45
2018-02-04T21:56:40.176Z,4.12
2018-02-04T21:59:08.326Z,4.40
2018-02-04T22:01:36.470Z,4.15
2018-02-04T22:04:04.619Z,4.53
2018-02-04T22:06:32.751Z,4.15
2018-02-04T22:09:00.896Z,5.68
2018-02-04T22:11:29.020Z,5.97
2018-02-04T22:13:57.185Z,5.12
2018-02-04T22:16:25.322Z,5.12
2018-02-04T22:18:53.487Z,3.60
2018-02-04T22:21:21.624Z,7.30
2018-02-04T22:23:49.825Z,7.32
2018-02-04T22:26:17.954Z,4.45
2018-02-04T22:28:46.096Z,6.97
2018-02-04T22:31:14.221Z,6.40
2018-02-04T22:33:42.372Z,3.40
2018-02-04T22:36:10.499Z,4.35
2018-02-04T22:38:38.687Z,4.00
2018-02-04T22:41:06.806Z,3.92
2018-02-04T22:43:34.946Z,6.03
2018-02-04T22:46:03.075Z,7.00
2018-02-04T22:48:31.990Z,4.72
2018-02-04T22:51:00.110Z,6.20
2018-02-04T22:53:28.258Z,4.55
2018-02-04T22:55:56.381Z,5.07
2018-02-04T22:58:24.534Z,3.75
2018-02-04T23:00:52.654Z,4.87
2018-02-04T23:03:20.820Z,4.22
2018-02-04T23:05:48.946Z,4.18
2018-02-04T23:08:17.062Z,5.60
2018-02-04T23:10:45.212Z,7.12
2018-02-04T23:13:13.338Z,7.10
2018-02-04T23:15:41.492Z,5.87
2018-02-04T23:18:09.623Z,5.68
2018-02-04T23:20:37.772Z,6.85
2018-02-04T23:23:05.903Z,6.65
2018-02-04T23:25:34.064Z,6.97
2018-02-04T23:28:02.978Z,8.15
2018-02-04T23:30:31.124Z,8.15
2018-02-04T23:33:00.040Z,7.45
2018-02-04T23:35:28.183Z,9.80
2018-02-04T23:37:56.309Z,10.32
2018-02-04T23:40:24.465Z,6.65
2018-02-04T23:42:52.591Z,7.75
2018-02-04T23:45:20.740Z,11.32
2018-02-04T23:47:48.865Z,6.62
2018-02-04T23:50:17.828Z,11.10
2018-02-04T23:52:45.969Z,9.07
2018-02-04T23:55:14.235Z,7.82
2018-02-04T23:57:42.353Z,5.20
